createdAt,value
2018-07-04T00:01:01.798Z,16.06
2018-07-04T00:03:42.227Z,16.03
2018-07-04T00:06:22.577Z,15.97
2018-07-04T00:09:06.189Z,15.90
2018-07-04T00:11:46.742Z,15.86
2018-07-04T00:14:27.308Z,15.80
2018-07-04T00:17:07.630Z,15.75
2018-07-04T00:19:47.951Z,15.70
2018-07-04T00:22:28.282Z,15.66
2018-07-04T00:25:08.649Z,15.66
2018-07-04T00:27:49.287Z,15.63
2018-07-04T00:30:29.777Z,15.66
2018-07-04T00:33:10.298Z,15.60
2018-07-04T00:35:50.813Z,15.55
2018-07-04T00:38:31.639Z,15.49
2018-07-04T00:41:12.168Z,15.43
2018-07-04T00:43:52.505Z,15.35
2018-07-04T00:46:32.948Z,15.29
2018-07-04T00:49:13.274Z,15.26
2018-07-04T00:51:53.745Z,15.19
2018-07-04T00:54:34.297Z,15.09
2018-07-04T00:57:14.601Z,15.02
2018-07-04T00:59:55.008Z,14.89
2018-07-04T01:02:35.393Z,14.86
2018-07-04T01:05:15.842Z,14.78
2018-07-04T01:07:56.338Z,14.73
2018-07-04T01:10:36.907Z,14.70
2018-07-04T01:13:17.589Z,14.67
2018-07-04T01:15:57.941Z,14.63
2018-07-04T01:18:38.236Z,14.62
2018-07-04T01:21:18.678Z,14.56
2018-07-04T01:23:58.961Z,14.53
2018-07-04T01:26:39.481Z,14.55
2018-07-04T01:29:19.748Z,14.57
2018-07-04T01:32:00.192Z,14.54
2018-07-04T01:34:40.768Z,14.52
2018-07-04T01:37:21.084Z,14.52
2018-07-04T01:40:01.391Z,14.46
2018-07-04T01:42:41.813Z,14.39
2018-07-04T01:45:22.242Z,14.38
2018-07-04T01:48:02.724Z,14.31
2018-07-04T01:50:43.025Z,14.34
2018-07-04T01:53:23.460Z,14.35
2018-07-04T01:56:03.908Z,14.33
2018-07-04T01:58:44.437Z,14.30
2018-07-04T02:01:25.259Z,14.28
2018-07-04T02:04:05.785Z,14.24
2018-07-04T02:06:46.174Z,14.18
2018-07-04T02:09:26.468Z,14.17
2018-07-04T02:12:06.951Z,14.11
2018-07-04T02:14:47.372Z,14.05
2018-07-04T02:17:27.853Z,13.95
2018-07-04T02:20:08.399Z,13.91
2018-07-04T02:22:49.736Z,13.88
2018-07-04T02:25:30.288Z,13.80
2018-07-04T02:28:10.609Z,13.76
2018-07-04T02:30:50.867Z,13.76
2018-07-04T02:33:31.178Z,13.75
2018-07-04T02:36:11.503Z,13.71
2018-07-04T02:38:52.038Z,13.65
2018-07-04T02:41:32.442Z,13.63
2018-07-04T02:44:12.869Z,13.60
2018-07-04T02:46:53.283Z,13.53
2018-07-04T02:49:33.598Z,13.50
2018-07-04T02:52:14.017Z,13.50
2018-07-04T02:54:54.317Z,13.45
2018-07-04T02:57:34.676Z,13.45
2018-07-04T03:00:15.201Z,13.41
2018-07-04T03:02:55.568Z,13.41
2018-07-04T03:05:36.067Z,13.44
2018-07-04T03:08:16.605Z,13.42
2018-07-04T03:10:57.033Z,13.44
2018-07-04T03:13:37.706Z,13.44
2018-07-04T03:16:18.149Z,13.41
2018-07-04T03:18:58.583Z,13.42
2018-07-04T03:21:38.790Z,13.44
2018-07-04T03:24:19.143Z,13.41
2018-07-04T03:26:59.505Z,13.44
2018-07-04T03:29:39.791Z,13.43
2018-07-04T03:32:20.125Z,13.44
2018-07-04T03:35:00.431Z,13.45
2018-07-04T03:37:40.778Z,13.44
2018-07-04T03:40:24.136Z,13.44
2018-07-04T03:43:04.634Z,13.48
2018-07-04T03:45:45.403Z,13.48
2018-07-04T03:48:25.746Z,13.49
2018-07-04T03:51:06.300Z,13.50
2018-07-04T03:53:46.572Z,13.52
2018-07-04T03:56:26.892Z,13.56
2018-07-04T03:59:07.169Z,13.59
2018-07-04T04:01:47.497Z,13.58
2018-07-04T04:04:27.802Z,13.62
2018-07-04T04:07:08.281Z,13.66
2018-07-04T04:09:48.632Z,13.70
2018-07-04T04:12:29.017Z,13.70
2018-07-04T04:15:09.327Z,13.77
2018-07-04T04:17:49.663Z,13.79
2018-07-04T04:20:30.083Z,13.87
2018-07-04T04:23:10.541Z,13.83
2018-07-04T04:25:50.873Z,13.85
2018-07-04T04:28:31.337Z,13.90
2018-07-04T04:31:11.667Z,13.94
2018-07-04T04:33:52.188Z,13.97
2018-07-04T04:36:32.695Z,13.96
2018-07-04T04:39:13.063Z,14.01
2018-07-04T04:41:53.356Z,14.06
2018-07-04T04:44:33.793Z,14.13
2018-07-04T04:47:14.130Z,14.21
2018-07-04T04:49:54.572Z,14.30
2018-07-04T04:52:34.937Z,14.42
2018-07-04T04:55:15.423Z,14.53
2018-07-04T04:57:55.883Z,14.65
2018-07-04T05:00:36.309Z,14.69
2018-07-04T05:03:17.014Z,14.78
2018-07-04T05:05:57.706Z,14.89
2018-07-04T05:08:38.127Z,14.98
2018-07-04T05:11:18.498Z,15.14
2018-07-04T05:13:58.963Z,15.23
2018-07-04T05:16:39.233Z,15.36
2018-07-04T05:19:19.684Z,15.44
2018-07-04T05:22:00.137Z,15.56
2018-07-04T05:24:40.606Z,15.63
2018-07-04T05:27:21.013Z,15.75
2018-07-04T05:30:01.654Z,15.83
2018-07-04T05:32:42.146Z,15.96
2018-07-04T05:35:22.645Z,16.09
2018-07-04T05:38:03.017Z,16.25
2018-07-04T05:40:43.480Z,16.34
2018-07-04T05:43:23.901Z,16.48
2018-07-04T05:46:04.179Z,16.64
2018-07-04T05:48:44.736Z,16.82
2018-07-04T05:51:25.245Z,16.92
2018-07-04T05:54:05.794Z,17.08
2018-07-04T05:56:46.081Z,17.29
2018-07-04T05:59:26.403Z,17.39
2018-07-04T06:02:06.886Z,17.53
2018-07-04T06:04:47.500Z,17.77
2018-07-04T06:07:27.897Z,18.05
2018-07-04T06:10:08.257Z,18.59
2018-07-04T06:12:48.758Z,19.33
2018-07-04T06:15:29.249Z,21.01
2018-07-04T06:18:10.019Z,21.99
2018-07-04T06:20:50.486Z,21.83
2018-07-04T06:23:31.111Z,22.95
2018-07-04T06:26:11.514Z,23.33
2018-07-04T06:28:51.945Z,24.41
2018-07-04T06:31:32.561Z,24.93
2018-07-04T06:34:12.998Z,26.07
2018-07-04T06:36:53.256Z,27.18
2018-07-04T06:39:27.469Z,27.81
2018-07-04T06:41:55.705Z,27.85
2018-07-04T06:44:23.896Z,28.08
2018-07-04T06:46:51.871Z,28.33
2018-07-04T06:49:19.954Z,29.92
2018-07-04T06:51:48.302Z,29.64
2018-07-04T06:54:16.391Z,29.47
2018-07-04T06:56:44.249Z,29.25
2018-07-04T06:59:12.296Z,29.15
2018-07-04T07:01:40.273Z,29.44
2018-07-04T07:04:20.871Z,29.53
2018-07-04T07:07:01.268Z,29.52
2018-07-04T07:09:41.955Z,30.21
2018-07-04T07:12:22.323Z,30.52
2018-07-04T07:15:02.922Z,31.04
2018-07-04T07:17:43.389Z,30.45
2018-07-04T07:20:23.859Z,30.07
2018-07-04T07:23:04.321Z,30.25
2018-07-04T07:25:44.750Z,30.00
2018-07-04T07:28:24.973Z,30.80
2018-07-04T07:31:05.339Z,31.35
2018-07-04T07:33:45.739Z,31.05
2018-07-04T07:36:26.105Z,32.13
2018-07-04T07:39:06.579Z,31.48
2018-07-04T07:41:46.974Z,30.93
2018-07-04T07:44:27.184Z,30.52
2018-07-04T07:47:07.493Z,30.44
2018-07-04T07:49:47.918Z,30.86
2018-07-04T07:52:28.204Z,31.98
2018-07-04T07:55:08.846Z,32.21
2018-07-04T07:57:49.207Z,32.98
2018-07-04T08:00:29.868Z,32.44
2018-07-04T08:03:10.535Z,32.42
2018-07-04T08:05:51.014Z,32.97
2018-07-04T08:08:31.468Z,33.26
2018-07-04T08:11:12.040Z,34.17
2018-07-04T08:13:52.469Z,34.03
2018-07-04T08:16:33.137Z,33.88
2018-07-04T08:19:14.487Z,33.10
2018-07-04T08:21:55.045Z,33.30
2018-07-04T08:24:35.342Z,34.21
2018-07-04T08:27:15.725Z,34.52
2018-07-04T08:29:56.344Z,33.99
2018-07-04T08:32:36.901Z,34.11
2018-07-04T08:35:17.378Z,34.21
2018-07-04T08:37:57.749Z,34.41
2018-07-04T08:40:38.148Z,34.40
2018-07-04T08:43:18.591Z,34.64
2018-07-04T08:45:59.038Z,35.77
2018-07-04T08:48:39.397Z,34.43
2018-07-04T08:51:19.818Z,34.55
2018-07-04T08:54:00.342Z,34.97
2018-07-04T08:56:40.725Z,34.67
2018-07-04T08:59:21.256Z,34.44
2018-07-04T09:02:01.658Z,33.38
2018-07-04T09:04:41.974Z,33.41
2018-07-04T09:07:22.307Z,33.73
2018-07-04T09:10:02.618Z,34.31
2018-07-04T09:12:42.974Z,34.17
2018-07-04T09:15:23.363Z,34.54
2018-07-04T09:18:03.655Z,34.54
2018-07-04T09:20:44.073Z,34.14
2018-07-04T09:23:24.363Z,34.01
2018-07-04T09:26:04.677Z,34.21
2018-07-04T09:28:45.132Z,34.45
2018-07-04T09:31:25.548Z,33.94
2018-07-04T09:34:05.911Z,34.92
2018-07-04T09:36:46.150Z,35.60
2018-07-04T09:39:26.372Z,35.19
2018-07-04T09:42:06.626Z,35.85
2018-07-04T09:44:47.113Z,36.41
2018-07-04T09:47:27.382Z,36.14
2018-07-04T09:50:07.781Z,35.71
2018-07-04T09:52:48.329Z,35.36
2018-07-04T09:55:28.795Z,35.97
2018-07-04T09:58:09.198Z,35.88
2018-07-04T10:00:55.211Z,35.67
2018-07-04T10:03:35.486Z,35.52
2018-07-04T10:06:15.865Z,35.60
2018-07-04T10:08:56.505Z,35.54
2018-07-04T10:11:36.836Z,35.34
2018-07-04T10:14:17.151Z,35.20
2018-07-04T10:16:57.579Z,35.63
2018-07-04T10:19:38.013Z,35.18
2018-07-04T10:22:18.431Z,35.07
2018-07-04T10:24:58.733Z,35.90
2018-07-04T10:27:39.175Z,36.99
2018-07-04T10:30:19.781Z,37.38
2018-07-04T10:33:00.231Z,38.19
2018-07-04T10:35:40.465Z,37.12
2018-07-04T10:38:20.759Z,37.21
2018-07-04T10:41:01.192Z,37.30
2018-07-04T10:43:41.724Z,37.14
2018-07-04T10:46:22.117Z,37.02
2018-07-04T10:49:02.610Z,36.48
2018-07-04T10:51:42.896Z,36.96
2018-07-04T10:54:23.543Z,37.10
2018-07-04T10:57:04.021Z,36.85
2018-07-04T10:59:44.323Z,37.70
2018-07-04T11:02:24.574Z,37.26
2018-07-04T11:05:04.934Z,37.47
2018-07-04T11:07:45.230Z,36.95
2018-07-04T11:10:25.546Z,36.92
2018-07-04T11:13:06.065Z,36.72
2018-07-04T11:15:46.379Z,37.03
2018-07-04T11:18:26.637Z,37.56
2018-07-04T11:21:06.876Z,37.79
2018-07-04T11:23:47.421Z,37.37
2018-07-04T11:26:27.869Z,36.96
2018-07-04T11:29:08.273Z,36.93
2018-07-04T11:31:48.592Z,36.95
2018-07-04T11:34:29.013Z,37.56
2018-07-04T11:37:09.376Z,38.28
2018-07-04T11:39:49.616Z,38.57
2018-07-04T11:42:30.059Z,38.89
2018-07-04T11:45:10.489Z,38.30
2018-07-04T11:47:38.439Z,38.45
2018-07-04T11:50:06.394Z,37.98
2018-07-04T11:52:34.416Z,38.27
2018-07-04T11:55:02.606Z,38.23
2018-07-04T11:57:30.949Z,37.92
2018-07-04T11:59:58.918Z,38.18
2018-07-04T12:02:26.964Z,37.68
2018-07-04T12:05:07.453Z,37.85
2018-07-04T12:07:35.455Z,37.65
2018-07-04T12:10:03.468Z,37.71
2018-07-04T12:12:31.426Z,38.28
2018-07-04T12:14:59.381Z,37.85
2018-07-04T12:17:27.349Z,37.53
2018-07-04T12:19:55.317Z,37.87
2018-07-04T12:22:23.273Z,37.88
2018-07-04T12:24:51.269Z,37.31
2018-07-04T12:27:19.241Z,38.76
2018-07-04T12:29:47.209Z,38.72
2018-07-04T12:32:15.336Z,38.15
2018-07-04T12:34:43.296Z,38.16
2018-07-04T12:37:11.316Z,38.74
2018-07-04T12:39:39.289Z,38.73
2018-07-04T12:42:07.528Z,39.27
2018-07-04T12:44:35.508Z,38.01
2018-07-04T12:47:03.516Z,38.21
2018-07-04T12:49:31.505Z,38.66
2018-07-04T12:52:00.024Z,37.91
2018-07-04T12:54:33.601Z,39.32
2018-07-04T12:57:13.983Z,39.30
2018-07-04T12:59:54.349Z,38.87
2018-07-04T13:02:34.693Z,39.27
2018-07-04T13:05:15.054Z,38.85
2018-07-04T13:07:55.301Z,38.30
2018-07-04T13:10:35.685Z,39.85
2018-07-04T13:13:16.238Z,38.99
2018-07-04T13:15:56.533Z,38.52
2018-07-04T13:18:36.903Z,38.85
2018-07-04T13:21:17.213Z,38.86
2018-07-04T13:23:57.607Z,38.89
2018-07-04T13:26:38.048Z,39.47
2018-07-04T13:29:18.230Z,40.10
2018-07-04T13:31:58.648Z,39.01
2018-07-04T13:34:39.002Z,39.03
2018-07-04T13:37:19.816Z,38.26
2018-07-04T13:40:00.373Z,37.69
2018-07-04T13:42:40.693Z,37.84
2018-07-04T13:45:21.190Z,38.12
2018-07-04T13:48:01.560Z,38.41
2018-07-04T13:50:41.909Z,37.15
2018-07-04T13:53:22.382Z,37.21
2018-07-04T13:56:02.726Z,37.29
2018-07-04T13:58:43.173Z,38.19
2018-07-04T14:01:23.773Z,37.99
2018-07-04T14:04:04.165Z,38.04
2018-07-04T14:06:44.576Z,37.92
2018-07-04T14:09:24.845Z,38.13
2018-07-04T14:12:05.165Z,38.22
2018-07-04T14:14:45.527Z,38.12
2018-07-04T14:17:25.893Z,38.08
2018-07-04T14:20:06.454Z,38.32
2018-07-04T14:22:46.707Z,38.56
2018-07-04T14:25:27.035Z,38.03
2018-07-04T14:28:07.447Z,37.71
2018-07-04T14:30:47.635Z,37.52
2018-07-04T14:33:27.962Z,37.66
2018-07-04T14:36:08.349Z,37.57
2018-07-04T14:38:48.550Z,37.05
2018-07-04T14:41:28.854Z,37.57
2018-07-04T14:44:09.213Z,37.26
2018-07-04T14:46:49.692Z,37.43
2018-07-04T14:49:30.378Z,37.03
2018-07-04T14:52:10.883Z,36.92
2018-07-04T14:54:51.300Z,36.59
2018-07-04T14:57:31.766Z,36.36
2018-07-04T15:00:12.672Z,36.43
2018-07-04T15:02:53.326Z,37.19
2018-07-04T15:05:33.724Z,37.65
2018-07-04T15:08:13.889Z,36.84
2018-07-04T15:10:54.331Z,36.95
2018-07-04T15:13:34.630Z,36.02
2018-07-04T15:16:15.105Z,35.56
2018-07-04T15:18:55.486Z,35.43
2018-07-04T15:21:35.804Z,35.83
2018-07-04T15:24:16.242Z,36.27
2018-07-04T15:26:56.550Z,35.75
2018-07-04T15:29:37.093Z,35.77
2018-07-04T15:32:17.444Z,35.73
2018-07-04T15:34:57.824Z,35.63
2018-07-04T15:37:38.339Z,35.65
2018-07-04T15:40:18.534Z,35.90
2018-07-04T15:42:59.040Z,35.60
2018-07-04T15:45:39.599Z,35.82
2018-07-04T15:48:19.874Z,36.35
2018-07-04T15:51:00.421Z,35.82
2018-07-04T15:53:40.859Z,36.01
2018-07-04T15:56:21.278Z,35.53
2018-07-04T15:59:01.570Z,35.30
2018-07-04T16:01:41.895Z,34.93
2018-07-04T16:04:22.204Z,34.85
2018-07-04T16:07:02.541Z,35.14
2018-07-04T16:09:42.941Z,35.23
2018-07-04T16:12:23.381Z,35.32
2018-07-04T16:15:03.837Z,34.87
2018-07-04T16:17:44.102Z,34.52
2018-07-04T16:20:24.464Z,34.18
2018-07-04T16:23:04.810Z,34.40
2018-07-04T16:25:45.082Z,34.08
2018-07-04T16:28:25.386Z,33.60
2018-07-04T16:31:05.725Z,33.22
2018-07-04T16:33:46.011Z,32.97
2018-07-04T16:36:26.348Z,32.49
2018-07-04T16:39:07.301Z,32.50
2018-07-04T16:41:47.959Z,32.23
2018-07-04T16:44:28.274Z,32.26
2018-07-04T16:47:08.693Z,32.17
2018-07-04T16:49:49.002Z,32.18
2018-07-04T16:52:29.460Z,32.15
2018-07-04T16:55:09.962Z,32.13
2018-07-04T16:57:50.449Z,32.06
2018-07-04T17:00:30.736Z,31.92
2018-07-04T17:03:11.018Z,31.90
2018-07-04T17:05:51.215Z,31.81
2018-07-04T17:08:31.688Z,31.77
2018-07-04T17:11:15.138Z,31.55
2018-07-04T17:13:55.521Z,31.44
2018-07-04T17:16:36.030Z,31.44
2018-07-04T17:19:16.410Z,31.43
2018-07-04T17:21:56.978Z,31.30
2018-07-04T17:24:37.415Z,31.14
2018-07-04T17:27:17.891Z,31.10
2018-07-04T17:29:58.235Z,31.05
2018-07-04T17:32:38.661Z,30.99
2018-07-04T17:35:19.123Z,30.91
2018-07-04T17:37:59.506Z,30.79
2018-07-04T17:40:39.775Z,30.64
2018-07-04T17:43:20.187Z,30.55
2018-07-04T17:46:00.641Z,30.39
2018-07-04T17:48:41.033Z,30.35
2018-07-04T17:51:21.389Z,30.29
2018-07-04T17:54:01.803Z,30.14
2018-07-04T17:56:42.134Z,30.06
2018-07-04T17:59:22.410Z,30.00
2018-07-04T18:02:02.744Z,29.87
2018-07-04T18:04:43.181Z,29.81
2018-07-04T18:07:23.524Z,29.71
2018-07-04T18:10:04.072Z,29.59
2018-07-04T18:12:44.475Z,29.48
2018-07-04T18:15:24.902Z,29.38
2018-07-04T18:18:05.204Z,29.23
2018-07-04T18:20:45.630Z,29.10
2018-07-04T18:23:26.061Z,28.95
2018-07-04T18:26:06.542Z,28.73
2018-07-04T18:28:47.094Z,28.59
2018-07-04T18:31:27.840Z,28.42
2018-07-04T18:34:08.358Z,28.21
2018-07-04T18:36:48.830Z,28.08
2018-07-04T18:39:29.196Z,27.85
2018-07-04T18:42:09.979Z,27.62
2018-07-04T18:44:50.411Z,27.40
2018-07-04T18:47:30.749Z,27.18
2018-07-04T18:50:11.213Z,26.95
2018-07-04T18:52:52.237Z,26.69
2018-07-04T18:55:32.570Z,26.46
2018-07-04T18:58:13.351Z,26.25
2018-07-04T19:00:54.137Z,26.05
2018-07-04T19:03:34.570Z,25.91
2018-07-04T19:06:14.808Z,25.80
2018-07-04T19:08:55.273Z,25.70
2018-07-04T19:11:35.896Z,25.53
2018-07-04T19:14:16.445Z,25.32
2018-07-04T19:16:56.865Z,25.19
2018-07-04T19:19:37.218Z,25.01
2018-07-04T19:22:17.522Z,24.84
2018-07-04T19:24:57.823Z,24.72
2018-07-04T19:27:38.120Z,24.62
2018-07-04T19:30:18.599Z,24.65
2018-07-04T19:32:59.082Z,24.59
2018-07-04T19:35:39.623Z,24.45
2018-07-04T19:38:20.011Z,24.35
2018-07-04T19:41:00.445Z,24.37
2018-07-04T19:43:41.006Z,24.19
2018-07-04T19:46:21.446Z,24.02
2018-07-04T19:49:01.791Z,23.90
2018-07-04T19:51:42.185Z,23.77
2018-07-04T19:54:22.506Z,23.61
2018-07-04T19:57:03.011Z,23.44
2018-07-04T19:59:43.270Z,23.37
2018-07-04T20:02:23.681Z,23.29
2018-07-04T20:05:03.949Z,23.18
2018-07-04T20:07:44.245Z,23.15
2018-07-04T20:10:24.650Z,23.13
2018-07-04T20:13:05.413Z,23.15
2018-07-04T20:15:45.903Z,23.10
2018-07-04T20:18:26.404Z,23.00
2018-07-04T20:21:06.934Z,22.88
2018-07-04T20:23:47.432Z,22.80
2018-07-04T20:26:27.924Z,22.76
2018-07-04T20:29:08.204Z,22.75
2018-07-04T20:31:48.689Z,22.67
2018-07-04T20:34:29.150Z,22.68
2018-07-04T20:37:09.410Z,22.55
2018-07-04T20:39:49.825Z,22.55
2018-07-04T20:42:30.142Z,22.45
2018-07-04T20:45:10.496Z,22.33
2018-07-04T20:47:50.749Z,22.22
2018-07-04T20:50:31.064Z,22.27
2018-07-04T20:53:11.407Z,22.29
2018-07-04T20:55:51.723Z,22.28
2018-07-04T20:58:31.997Z,22.30
2018-07-04T21:01:12.497Z,22.25
2018-07-04T21:03:52.857Z,22.13
2018-07-04T21:06:33.226Z,22.06
2018-07-04T21:09:13.538Z,22.01
2018-07-04T21:11:53.826Z,22.01
2018-07-04T21:14:34.683Z,21.85
2018-07-04T21:17:15.056Z,21.78
2018-07-04T21:19:55.386Z,21.75
2018-07-04T21:22:35.808Z,21.75
2018-07-04T21:25:16.239Z,21.74
2018-07-04T21:27:56.577Z,21.66
2018-07-04T21:30:36.857Z,21.60
2018-07-04T21:33:17.227Z,21.62
2018-07-04T21:35:57.578Z,21.57
2018-07-04T21:38:37.965Z,21.47
2018-07-04T21:41:18.577Z,21.47
2018-07-04T21:43:58.924Z,21.44
2018-07-04T21:46:39.357Z,21.45
2018-07-04T21:49:19.697Z,21.42
2018-07-04T21:52:00.255Z,21.37
2018-07-04T21:54:40.670Z,21.33
2018-07-04T21:57:20.848Z,21.34
2018-07-04T22:00:01.455Z,21.30
2018-07-04T22:02:41.829Z,21.26
2018-07-04T22:05:22.214Z,21.25
2018-07-04T22:08:02.628Z,21.21
2018-07-04T22:10:44.496Z,21.18
2018-07-04T22:13:24.772Z,21.15
2018-07-04T22:16:05.148Z,21.09
2018-07-04T22:18:45.465Z,21.13
2018-07-04T22:21:26.055Z,21.10
2018-07-04T22:24:06.844Z,20.97
2018-07-04T22:26:47.330Z,20.87
2018-07-04T22:29:27.525Z,20.77
2018-07-04T22:32:07.786Z,20.69
2018-07-04T22:34:48.276Z,20.61
2018-07-04T22:37:28.554Z,20.56
2018-07-04T22:40:08.895Z,20.59
2018-07-04T22:42:49.260Z,20.56
2018-07-04T22:45:29.458Z,20.51
2018-07-04T22:48:09.773Z,20.42
2018-07-04T22:50:50.146Z,20.41
2018-07-04T22:53:30.536Z,20.36
2018-07-04T22:56:10.852Z,20.37
2018-07-04T22:58:51.276Z,20.31
2018-07-04T23:01:31.702Z,20.22
2018-07-04T23:04:12.155Z,20.11
2018-07-04T23:06:52.630Z,20.06
2018-07-04T23:09:33.181Z,20.05
2018-07-04T23:12:13.484Z,19.98
2018-07-04T23:14:53.774Z,19.91
2018-07-04T23:17:34.144Z,19.85
2018-07-04T23:20:14.538Z,19.83
2018-07-04T23:22:54.909Z,19.83
2018-07-04T23:25:35.353Z,19.79
2018-07-04T23:28:18.212Z,19.73
2018-07-04T23:31:01.593Z,19.69
2018-07-04T23:33:41.999Z,19.59
2018-07-04T23:36:22.493Z,19.53
2018-07-04T23:39:03.072Z,19.50
2018-07-04T23:41:43.342Z,19.48
2018-07-04T23:44:23.693Z,19.48
2018-07-04T23:47:04.160Z,19.45
2018-07-04T23:49:44.427Z,19.43
2018-07-04T23:52:24.778Z,19.33
2018-07-04T23:55:05.254Z,19.28
2018-07-04T23:57:45.511Z,19.27
